sensor_id;sensor_type;location;lat;lon;timestamp;temperature;humidity
2973;DHT22;1496;51.404;7.232;2023-06-10T00:02:08;20.40;99.90
2973;DHT22;1496;51.404;7.232;2023-06-10T00:04:34;20.40;99.90
2973;DHT22;1496;51.404;7.232;2023-06-10T00:07:05;20.30;99.90
2973;DHT22;1496;51.404;7.232;2023-06-10T00:09:36;20.30;99.90
2973;DHT22;1496;51.404;7.232;2023-06-10T00:12:03;20.30;99.90
2973;DHT22;1496;51.404;7.232;2023-06-10T00:14:29;20.20;99.90
2973;DHT22;1496;51.404;7.232;2023-06-10T00:16:55;20.20;99.90
2973;DHT22;1496;51.404;7.232;2023-06-10T00:19:20;20.20;99.90
2973;DHT22;1496;51.404;7.232;2023-06-10T00:21:51;20.30;99.90
2973;DHT22;1496;51.404;7.232;2023-06-10T00:24:18;20.20;99.90
2973;DHT22;1496;51.404;7.232;2023-06-10T00:26:44;20.10;99.90
2973;DHT22;1496;51.404;7.232;2023-06-10T00:29:10;20.10;99.90
2973;DHT22;1496;51.404;7.232;2023-06-10T00:31:37;20.10;99.90
2973;DHT22;1496;51.404;7.232;2023-06-10T00:34:06;20.00;99.90
2973;DHT22;1496;51.404;7.232;2023-06-10T00:36:32;20.00;99.90
2973;DHT22;1496;51.404;7.232;2023-06-10T00:38:58;20.00;99.90
2973;DHT22;1496;51.404;7.232;2023-06-10T00:41:24;19.90;99.90
2973;DHT22;1496;51.404;7.232;2023-06-10T00:43:51;19.90;99.90
2973;DHT22;1496;51.404;7.232;2023-06-10T00:46:18;19.90;99.90
2973;DHT22;1496;51.404;7.232;2023-06-10T00:48:45;19.90;99.90
2973;DHT22;1496;51.404;7.232;2023-06-10T00:51:11;19.80;99.90
2973;DHT22;1496;51.404;7.232;2023-06-10T00:53:39;19.80;99.90
2973;DHT22;1496;51.404;7.232;2023-06-10T00:56:05;19.80;99.90
2973;DHT22;1496;51.404;7.232;2023-06-10T00:58:31;19.80;99.90
2973;DHT22;1496;51.404;7.232;2023-06-10T01:00:57;19.70;99.90
2973;DHT22;1496;51.404;7.232;2023-06-10T01:03:26;19.60;99.90
2973;DHT22;1496;51.404;7.232;2023-06-10T01:11:58;19.50;99.90
2973;DHT22;1496;51.404;7.232;2023-06-10T01:14:27;19.40;99.90
2973;DHT22;1496;51.404;7.232;2023-06-10T01:16:53;19.30;99.90
2973;DHT22;1496;51.404;7.232;2023-06-10T01:19:19;19.30;99.90
2973;DHT22;1496;51.404;7.232;2023-06-10T01:21:44;19.30;99.90
2973;DHT22;1496;51.404;7.232;2023-06-10T01:24:14;19.30;99.90
2973;DHT22;1496;51.404;7.232;2023-06-10T01:26:45;19.20;99.90
2973;DHT22;1496;51.404;7.232;2023-06-10T01:29:18;19.20;99.90
2973;DHT22;1496;51.404;7.232;2023-06-10T01:32:02;19.10;99.90
2973;DHT22;1496;51.404;7.232;2023-06-10T01:34:31;19.00;99.90
2973;DHT22;1496;51.404;7.232;2023-06-10T01:36:58;19.10;99.90
2973;DHT22;1496;51.404;7.232;2023-06-10T01:39:25;19.10;99.90
2973;DHT22;1496;51.404;7.232;2023-06-10T01:41:52;19.00;99.90
2973;DHT22;1496;51.404;7.232;2023-06-10T01:44:19;19.10;99.90
2973;DHT22;1496;51.404;7.232;2023-06-10T01:46:45;19.10;99.90
2973;DHT22;1496;51.404;7.232;2023-06-10T01:49:11;19.00;99.90
2973;DHT22;1496;51.404;7.232;2023-06-10T01:51:36;18.90;99.90
2973;DHT22;1496;51.404;7.232;2023-06-10T01:54:02;18.90;99.90
2973;DHT22;1496;51.404;7.232;2023-06-10T01:56:28;18.80;99.90
2973;DHT22;1496;51.404;7.232;2023-06-10T01:58:54;18.60;99.90
2973;DHT22;1496;51.404;7.232;2023-06-10T02:01:25;18.70;99.90
2973;DHT22;1496;51.404;7.232;2023-06-10T02:03:50;18.70;99.90
2973;DHT22;1496;51.404;7.232;2023-06-10T02:06:16;18.60;99.90
2973;DHT22;1496;51.404;7.232;2023-06-10T02:08:42;18.60;99.90
2973;DHT22;1496;51.404;7.232;2023-06-10T02:11:07;18.60;99.90
2973;DHT22;1496;51.404;7.232;2023-06-10T02:13:33;18.60;99.90
2973;DHT22;1496;51.404;7.232;2023-06-10T02:15:58;18.50;99.90
2973;DHT22;1496;51.404;7.232;2023-06-10T02:18:28;18.60;99.90
2973;DHT22;1496;51.404;7.232;2023-06-10T02:20:54;18.50;99.90
2973;DHT22;1496;51.404;7.232;2023-06-10T02:23:20;18.50;99.90
2973;DHT22;1496;51.404;7.232;2023-06-10T02:25:45;18.50;99.90
2973;DHT22;1496;51.404;7.232;2023-06-10T02:28:13;18.50;99.90
2973;DHT22;1496;51.404;7.232;2023-06-10T02:30:40;18.40;99.90
2973;DHT22;1496;51.404;7.232;2023-06-10T02:33:07;18.40;99.90
2973;DHT22;1496;51.404;7.232;2023-06-10T02:35:37;18.40;99.90
2973;DHT22;1496;51.404;7.232;2023-06-10T02:38:04;18.40;99.90
2973;DHT22;1496;51.404;7.232;2023-06-10T02:40:31;18.40;99.90
2973;DHT22;1496;51.404;7.232;2023-06-10T02:42:57;18.30;99.90
2973;DHT22;1496;51.404;7.232;2023-06-10T02:45:24;18.30;99.90
2973;DHT22;1496;51.404;7.232;2023-06-10T02:47:50;18.20;99.90
2973;DHT22;1496;51.404;7.232;2023-06-10T02:50:16;18.20;99.90
2973;DHT22;1496;51.404;7.232;2023-06-10T02:53:08;18.20;99.90
2973;DHT22;1496;51.404;7.232;2023-06-10T02:55:39;18.10;99.90
2973;DHT22;1496;51.404;7.232;2023-06-10T02:58:09;18.00;99.90
2973;DHT22;1496;51.404;7.232;2023-06-10T03:00:35;18.00;99.90
2973;DHT22;1496;51.404;7.232;2023-06-10T03:03:03;17.90;99.90
2973;DHT22;1496;51.404;7.232;2023-06-10T03:05:38;17.90;99.90
2973;DHT22;1496;51.404;7.232;2023-06-10T03:08:05;17.80;99.90
2973;DHT22;1496;51.404;7.232;2023-06-10T03:10:34;17.70;99.90
2973;DHT22;1496;51.404;7.232;2023-06-10T03:13:01;17.70;99.90
2973;DHT22;1496;51.404;7.232;2023-06-10T03:15:27;17.70;99.90
2973;DHT22;1496;51.404;7.232;2023-06-10T03:17:55;17.60;99.90
2973;DHT22;1496;51.404;7.232;2023-06-10T03:20:21;17.60;99.90
2973;DHT22;1496;51.404;7.232;2023-06-10T03:22:48;17.60;99.90
2973;DHT22;1496;51.404;7.232;2023-06-10T03:25:14;17.60;99.90
2973;DHT22;1496;51.404;7.232;2023-06-10T03:27:43;17.50;99.90
2973;DHT22;1496;51.404;7.232;2023-06-10T03:30:09;17.50;99.90
2973;DHT22;1496;51.404;7.232;2023-06-10T03:32:37;17.60;99.90
2973;DHT22;1496;51.404;7.232;2023-06-10T03:35:05;17.50;99.90
2973;DHT22;1496;51.404;7.232;2023-06-10T03:37:32;17.50;99.90
2973;DHT22;1496;51.404;7.232;2023-06-10T03:39:57;17.50;99.90
2973;DHT22;1496;51.404;7.232;2023-06-10T03:42:23;17.50;99.90
2973;DHT22;1496;51.404;7.232;2023-06-10T03:44:49;17.50;99.90
2973;DHT22;1496;51.404;7.232;2023-06-10T03:47:15;17.50;99.90
2973;DHT22;1496;51.404;7.232;2023-06-10T03:49:42;17.60;99.90
2973;DHT22;1496;51.404;7.232;2023-06-10T03:52:09;17.50;99.90
2973;DHT22;1496;51.404;7.232;2023-06-10T03:54:35;17.50;99.90
2973;DHT22;1496;51.404;7.232;2023-06-10T03:57:01;17.40;99.90
2973;DHT22;1496;51.404;7.232;2023-06-10T03:59:29;17.30;99.90
2973;DHT22;1496;51.404;7.232;2023-06-10T04:01:55;17.30;99.90
2973;DHT22;1496;51.404;7.232;2023-06-10T04:04:22;17.30;99.90
2973;DHT22;1496;51.404;7.232;2023-06-10T04:06:48;17.20;99.90
2973;DHT22;1496;51.404;7.232;2023-06-10T04:09:15;17.20;99.90
2973;DHT22;1496;51.404;7.232;2023-06-10T04:11:42;17.20;99.90
2973;DHT22;1496;51.404;7.232;2023-06-10T04:14:08;17.20;99.90
2973;DHT22;1496;51.404;7.232;2023-06-10T04:16:34;17.10;99.90
2973;DHT22;1496;51.404;7.232;2023-06-10T04:19:01;17.20;99.90
2973;DHT22;1496;51.404;7.232;2023-06-10T04:21:27;17.20;99.90
2973;DHT22;1496;51.404;7.232;2023-06-10T04:23:53;17.20;99.90
2973;DHT22;1496;51.404;7.232;2023-06-10T04:26:19;17.20;99.90
2973;DHT22;1496;51.404;7.232;2023-06-10T04:28:45;17.30;99.90
2973;DHT22;1496;51.404;7.232;2023-06-10T04:31:11;17.20;99.90
2973;DHT22;1496;51.404;7.232;2023-06-10T04:33:37;17.20;99.90
2973;DHT22;1496;51.404;7.232;2023-06-10T04:36:04;17.20;99.90
2973;DHT22;1496;51.404;7.232;2023-06-10T04:38:32;17.30;99.90
2973;DHT22;1496;51.404;7.232;2023-06-10T04:40:59;17.30;99.90
2973;DHT22;1496;51.404;7.232;2023-06-10T04:43:27;17.30;99.90
2973;DHT22;1496;51.404;7.232;2023-06-10T04:45:58;17.30;99.90
2973;DHT22;1496;51.404;7.232;2023-06-10T04:48:24;17.40;99.90
2973;DHT22;1496;51.404;7.232;2023-06-10T04:50:50;17.50;99.90
2973;DHT22;1496;51.404;7.232;2023-06-10T04:53:17;17.40;99.90
2973;DHT22;1496;51.404;7.232;2023-06-10T04:55:45;17.50;99.90
2973;DHT22;1496;51.404;7.232;2023-06-10T04:58:11;17.50;99.90
2973;DHT22;1496;51.404;7.232;2023-06-10T05:00:36;17.50;99.90
2973;DHT22;1496;51.404;7.232;2023-06-10T05:03:02;17.50;99.90
2973;DHT22;1496;51.404;7.232;2023-06-10T05:05:27;17.60;99.90
2973;DHT22;1496;51.404;7.232;2023-06-10T05:07:53;17.70;99.90
2973;DHT22;1496;51.404;7.232;2023-06-10T05:10:19;17.80;99.90
2973;DHT22;1496;51.404;7.232;2023-06-10T05:12:45;17.80;99.90
2973;DHT22;1496;51.404;7.232;2023-06-10T05:15:11;17.90;99.90
2973;DHT22;1496;51.404;7.232;2023-06-10T05:17:37;18.00;99.90
2973;DHT22;1496;51.404;7.232;2023-06-10T05:20:03;18.00;99.90
2973;DHT22;1496;51.404;7.232;2023-06-10T05:22:29;18.10;99.90
2973;DHT22;1496;51.404;7.232;2023-06-10T05:24:55;18.20;99.90
2973;DHT22;1496;51.404;7.232;2023-06-10T05:27:21;18.30;99.90
2973;DHT22;1496;51.404;7.232;2023-06-10T05:29:47;18.40;99.90
2973;DHT22;1496;51.404;7.232;2023-06-10T05:32:13;18.40;99.90
2973;DHT22;1496;51.404;7.232;2023-06-10T05:34:39;18.40;99.90
2973;DHT22;1496;51.404;7.232;2023-06-10T05:37:05;18.40;99.90
2973;DHT22;1496;51.404;7.232;2023-06-10T05:39:30;18.40;99.90
2973;DHT22;1496;51.404;7.232;2023-06-10T05:41:56;18.50;99.90
2973;DHT22;1496;51.404;7.232;2023-06-10T05:44:24;18.60;99.90
2973;DHT22;1496;51.404;7.232;2023-06-10T05:46:50;18.60;99.90
2973;DHT22;1496;51.404;7.232;2023-06-10T05:49:16;18.70;99.90
2973;DHT22;1496;51.404;7.232;2023-06-10T05:51:42;18.70;99.90
2973;DHT22;1496;51.404;7.232;2023-06-10T05:54:07;18.80;99.90
2973;DHT22;1496;51.404;7.232;2023-06-10T05:56:33;18.90;99.90
2973;DHT22;1496;51.404;7.232;2023-06-10T05:58:59;19.00;99.90
2973;DHT22;1496;51.404;7.232;2023-06-10T06:01:25;19.00;99.90
2973;DHT22;1496;51.404;7.232;2023-06-10T06:03:50;19.20;99.90
2973;DHT22;1496;51.404;7.232;2023-06-10T06:06:16;19.30;99.90
2973;DHT22;1496;51.404;7.232;2023-06-10T06:08:42;19.40;99.90
2973;DHT22;1496;51.404;7.232;2023-06-10T06:11:07;19.60;99.90
2973;DHT22;1496;51.404;7.232;2023-06-10T06:13:33;19.60;99.90
2973;DHT22;1496;51.404;7.232;2023-06-10T06:15:59;19.80;99.90
2973;DHT22;1496;51.404;7.232;2023-06-10T06:18:24;19.90;99.90
2973;DHT22;1496;51.404;7.232;2023-06-10T06:20:50;20.00;99.90
2973;DHT22;1496;51.404;7.232;2023-06-10T06:23:15;20.10;99.90
2973;DHT22;1496;51.404;7.232;2023-06-10T06:25:41;20.10;99.90
2973;DHT22;1496;51.404;7.232;2023-06-10T06:28:07;20.20;99.90
2973;DHT22;1496;51.404;7.232;2023-06-10T06:30:34;20.30;99.90
2973;DHT22;1496;51.404;7.232;2023-06-10T06:33:00;20.40;99.90
2973;DHT22;1496;51.404;7.232;2023-06-10T06:35:26;20.50;99.90
2973;DHT22;1496;51.404;7.232;2023-06-10T06:37:52;20.60;99.90
2973;DHT22;1496;51.404;7.232;2023-06-10T06:40:22;20.70;99.90
2973;DHT22;1496;51.404;7.232;2023-06-10T06:42:48;20.70;99.90
2973;DHT22;1496;51.404;7.232;2023-06-10T06:45:43;20.90;99.90
2973;DHT22;1496;51.404;7.232;2023-06-10T06:48:09;21.00;99.90
2973;DHT22;1496;51.404;7.232;2023-06-10T06:50:35;21.20;99.90
2973;DHT22;1496;51.404;7.232;2023-06-10T06:53:00;21.30;99.90
2973;DHT22;1496;51.404;7.232;2023-06-10T06:55:26;21.40;99.90
2973;DHT22;1496;51.404;7.232;2023-06-10T06:57:51;21.40;99.90
2973;DHT22;1496;51.404;7.232;2023-06-10T07:00:17;21.50;99.90
2973;DHT22;1496;51.404;7.232;2023-06-10T07:02:43;21.50;99.90
2973;DHT22;1496;51.404;7.232;2023-06-10T07:05:09;21.60;99.90
2973;DHT22;1496;51.404;7.232;2023-06-10T07:07:35;21.70;99.90
2973;DHT22;1496;51.404;7.232;2023-06-10T07:10:00;21.80;99.90
2973;DHT22;1496;51.404;7.232;2023-06-10T07:12:26;21.80;99.90
2973;DHT22;1496;51.404;7.232;2023-06-10T07:14:52;21.90;99.90
2973;DHT22;1496;51.404;7.232;2023-06-10T07:17:17;22.00;99.90
2973;DHT22;1496;51.404;7.232;2023-06-10T07:19:44;22.10;99.90
2973;DHT22;1496;51.404;7.232;2023-06-10T07:22:10;22.10;99.90
2973;DHT22;1496;51.404;7.232;2023-06-10T07:24:35;22.20;99.90
2973;DHT22;1496;51.404;7.232;2023-06-10T07:27:01;22.30;99.90
2973;DHT22;1496;51.404;7.232;2023-06-10T07:29:27;22.40;99.90
2973;DHT22;1496;51.404;7.232;2023-06-10T07:31:53;22.50;99.90
2973;DHT22;1496;51.404;7.232;2023-06-10T07:34:19;22.60;99.90
2973;DHT22;1496;51.404;7.232;2023-06-10T07:36:44;22.60;99.90
2973;DHT22;1496;51.404;7.232;2023-06-10T07:39:10;22.70;99.90
2973;DHT22;1496;51.404;7.232;2023-06-10T07:41:36;22.70;99.90
2973;DHT22;1496;51.404;7.232;2023-06-10T07:44:03;22.90;99.90
2973;DHT22;1496;51.404;7.232;2023-06-10T07:46:29;23.00;99.90
2973;DHT22;1496;51.404;7.232;2023-06-10T07:48:55;23.10;99.90
2973;DHT22;1496;51.404;7.232;2023-06-10T07:51:21;23.20;99.90
2973;DHT22;1496;51.404;7.232;2023-06-10T07:53:46;23.20;99.90
2973;DHT22;1496;51.404;7.232;2023-06-10T07:56:12;23.30;99.90
2973;DHT22;1496;51.404;7.232;2023-06-10T07:58:38;23.30;99.90
2973;DHT22;1496;51.404;7.232;2023-06-10T08:01:04;23.40;99.90
2973;DHT22;1496;51.404;7.232;2023-06-10T08:03:30;23.50;99.90
2973;DHT22;1496;51.404;7.232;2023-06-10T08:05:55;23.60;99.90
2973;DHT22;1496;51.404;7.232;2023-06-10T08:08:21;23.60;99.90
2973;DHT22;1496;51.404;7.232;2023-06-10T08:10:47;23.70;99.90
2973;DHT22;1496;51.404;7.232;2023-06-10T08:13:14;23.80;99.90
2973;DHT22;1496;51.404;7.232;2023-06-10T08:15:40;24.00;99.90
2973;DHT22;1496;51.404;7.232;2023-06-10T08:18:06;24.00;99.90
2973;DHT22;1496;51.404;7.232;2023-06-10T08:20:31;24.10;99.90
2973;DHT22;1496;51.404;7.232;2023-06-10T08:22:57;24.20;99.90
2973;DHT22;1496;51.404;7.232;2023-06-10T08:25:23;24.30;99.90
2973;DHT22;1496;51.404;7.232;2023-06-10T08:27:49;24.30;99.90
2973;DHT22;1496;51.404;7.232;2023-06-10T08:30:16;24.30;99.90
2973;DHT22;1496;51.404;7.232;2023-06-10T08:32:42;24.40;99.90
2973;DHT22;1496;51.404;7.232;2023-06-10T08:35:07;24.50;99.90
2973;DHT22;1496;51.404;7.232;2023-06-10T08:37:33;24.50;99.90
2973;DHT22;1496;51.404;7.232;2023-06-10T08:39:59;24.50;99.90
2973;DHT22;1496;51.404;7.232;2023-06-10T08:42:49;24.50;99.90
2973;DHT22;1496;51.404;7.232;2023-06-10T08:45:18;24.60;99.90
2973;DHT22;1496;51.404;7.232;2023-06-10T08:47:50;24.70;99.90
2973;DHT22;1496;51.404;7.232;2023-06-10T08:50:19;24.70;99.90
2973;DHT22;1496;51.404;7.232;2023-06-10T08:52:48;24.90;99.90
2973;DHT22;1496;51.404;7.232;2023-06-10T08:55:18;25.00;99.90
2973;DHT22;1496;51.404;7.232;2023-06-10T08:57:48;25.00;99.90
2973;DHT22;1496;51.404;7.232;2023-06-10T09:00:16;25.20;99.90
2973;DHT22;1496;51.404;7.232;2023-06-10T09:02:43;25.30;99.90
2973;DHT22;1496;51.404;7.232;2023-06-10T09:05:09;25.40;99.90
2973;DHT22;1496;51.404;7.232;2023-06-10T09:07:36;25.40;99.90
2973;DHT22;1496;51.404;7.232;2023-06-10T09:10:03;25.50;99.90
2973;DHT22;1496;51.404;7.232;2023-06-10T09:12:32;25.60;99.90
2973;DHT22;1496;51.404;7.232;2023-06-10T09:14:58;25.70;99.90
2973;DHT22;1496;51.404;7.232;2023-06-10T09:17:24;25.60;99.90
2973;DHT22;1496;51.404;7.232;2023-06-10T09:19:50;25.80;99.90
2973;DHT22;1496;51.404;7.232;2023-06-10T09:22:19;25.90;99.90
2973;DHT22;1496;51.404;7.232;2023-06-10T09:24:46;26.00;99.90
2973;DHT22;1496;51.404;7.232;2023-06-10T09:27:13;26.00;99.90
2973;DHT22;1496;51.404;7.232;2023-06-10T09:29:51;26.00;99.90
2973;DHT22;1496;51.404;7.232;2023-06-10T09:32:19;26.00;99.90
2973;DHT22;1496;51.404;7.232;2023-06-10T09:34:45;26.00;99.90
2973;DHT22;1496;51.404;7.232;2023-06-10T09:37:11;26.10;99.90
2973;DHT22;1496;51.404;7.232;2023-06-10T09:39:40;26.10;99.90
2973;DHT22;1496;51.404;7.232;2023-06-10T09:42:16;26.20;99.90
2973;DHT22;1496;51.404;7.232;2023-06-10T09:44:49;26.20;99.90
2973;DHT22;1496;51.404;7.232;2023-06-10T09:47:20;26.40;99.90
2973;DHT22;1496;51.404;7.232;2023-06-10T09:49:46;26.30;99.90
2973;DHT22;1496;51.404;7.232;2023-06-10T09:52:11;26.40;99.90
2973;DHT22;1496;51.404;7.232;2023-06-10T09:54:37;26.60;99.90
2973;DHT22;1496;51.404;7.232;2023-06-10T09:57:08;26.60;99.90
2973;DHT22;1496;51.404;7.232;2023-06-10T09:59:37;26.70;99.90
2973;DHT22;1496;51.404;7.232;2023-06-10T10:02:03;26.70;99.90
2973;DHT22;1496;51.404;7.232;2023-06-10T10:04:30;26.70;99.90
2973;DHT22;1496;51.404;7.232;2023-06-10T10:06:56;26.80;99.90
2973;DHT22;1496;51.404;7.232;2023-06-10T10:09:22;26.90;99.90
2973;DHT22;1496;51.404;7.232;2023-06-10T10:11:48;26.90;99.90
2973;DHT22;1496;51.404;7.232;2023-06-10T10:14:16;27.10;99.90
2973;DHT22;1496;51.404;7.232;2023-06-10T10:16:45;27.20;99.90
2973;DHT22;1496;51.404;7.232;2023-06-10T10:19:20;27.20;99.90
2973;DHT22;1496;51.404;7.232;2023-06-10T10:21:59;27.20;99.90
2973;DHT22;1496;51.404;7.232;2023-06-10T10:24:33;27.10;99.90
2973;DHT22;1496;51.404;7.232;2023-06-10T10:27:01;27.20;99.90
2973;DHT22;1496;51.404;7.232;2023-06-10T10:29:39;27.20;99.90
2973;DHT22;1496;51.404;7.232;2023-06-10T10:32:06;27.20;99.90
2973;DHT22;1496;51.404;7.232;2023-06-10T10:34:42;27.30;99.90
2973;DHT22;1496;51.404;7.232;2023-06-10T10:37:09;27.40;99.90
2973;DHT22;1496;51.404;7.232;2023-06-10T10:39:35;27.40;99.90
2973;DHT22;1496;51.404;7.232;2023-06-10T10:42:03;27.50;99.90
2973;DHT22;1496;51.404;7.232;2023-06-10T10:44:30;27.60;99.90
2973;DHT22;1496;51.404;7.232;2023-06-10T10:46:57;27.50;99.90
2973;DHT22;1496;51.404;7.232;2023-06-10T10:49:27;27.70;99.90
2973;DHT22;1496;51.404;7.232;2023-06-10T10:51:57;27.70;99.90
2973;DHT22;1496;51.404;7.232;2023-06-10T10:54:34;27.70;99.90
2973;DHT22;1496;51.404;7.232;2023-06-10T11:05:06;28.00;99.90
2973;DHT22;1496;51.404;7.232;2023-06-10T11:07:34;27.90;99.90
2973;DHT22;1496;51.404;7.232;2023-06-10T11:10:10;28.00;99.90
2973;DHT22;1496;51.404;7.232;2023-06-10T11:12:51;28.10;99.90
2973;DHT22;1496;51.404;7.232;2023-06-10T11:15:27;28.00;99.90
2973;DHT22;1496;51.404;7.232;2023-06-10T11:18:07;28.00;99.90
2973;DHT22;1496;51.404;7.232;2023-06-10T11:20:52;28.10;99.90
2973;DHT22;1496;51.404;7.232;2023-06-10T11:23:32;28.20;99.90
2973;DHT22;1496;51.404;7.232;2023-06-10T11:31:26;27.90;99.90
2973;DHT22;1496;51.404;7.232;2023-06-10T11:34:05;28.00;99.90
2973;DHT22;1496;51.404;7.232;2023-06-10T11:36:34;28.10;99.90
2973;DHT22;1496;51.404;7.232;2023-06-10T11:39:05;28.10;99.90
2973;DHT22;1496;51.404;7.232;2023-06-10T11:41:33;28.30;99.90
2973;DHT22;1496;51.404;7.232;2023-06-10T11:44:10;28.40;99.90
2973;DHT22;1496;51.404;7.232;2023-06-10T11:46:39;28.40;99.90
2973;DHT22;1496;51.404;7.232;2023-06-10T11:49:06;28.30;99.90
2973;DHT22;1496;51.404;7.232;2023-06-10T11:51:38;28.30;99.90
2973;DHT22;1496;51.404;7.232;2023-06-10T11:54:05;28.30;99.90
2973;DHT22;1496;51.404;7.232;2023-06-10T11:56:32;28.40;99.90
2973;DHT22;1496;51.404;7.232;2023-06-10T11:59:01;28.40;99.90
2973;DHT22;1496;51.404;7.232;2023-06-10T12:01:34;28.50;99.90
2973;DHT22;1496;51.404;7.232;2023-06-10T12:04:05;28.60;99.90
2973;DHT22;1496;51.404;7.232;2023-06-10T12:11:44;28.50;99.90
2973;DHT22;1496;51.404;7.232;2023-06-10T12:14:10;28.60;99.90
2973;DHT22;1496;51.404;7.232;2023-06-10T12:16:37;28.60;99.90
2973;DHT22;1496;51.404;7.232;2023-06-10T12:19:05;28.60;99.90
2973;DHT22;1496;51.404;7.232;2023-06-10T12:21:37;28.70;99.90
2973;DHT22;1496;51.404;7.232;2023-06-10T12:24:13;28.80;99.90
2973;DHT22;1496;51.404;7.232;2023-06-10T12:26:42;28.80;99.90
2973;DHT22;1496;51.404;7.232;2023-06-10T12:29:18;28.70;99.90
2973;DHT22;1496;51.404;7.232;2023-06-10T12:31:57;28.70;99.90
2973;DHT22;1496;51.404;7.232;2023-06-10T12:34:32;28.90;99.90
2973;DHT22;1496;51.404;7.232;2023-06-10T12:37:01;29.10;99.90
2973;DHT22;1496;51.404;7.232;2023-06-10T12:39:32;29.10;99.90
2973;DHT22;1496;51.404;7.232;2023-06-10T12:41:59;28.90;99.90
2973;DHT22;1496;51.404;7.232;2023-06-10T12:44:34;28.90;99.90
2973;DHT22;1496;51.404;7.232;2023-06-10T12:47:10;28.80;99.90
2973;DHT22;1496;51.404;7.232;2023-06-10T12:49:41;28.80;99.90
2973;DHT22;1496;51.404;7.232;2023-06-10T12:52:09;28.80;99.90
2973;DHT22;1496;51.404;7.232;2023-06-10T12:54:37;28.70;99.90
2973;DHT22;1496;51.404;7.232;2023-06-10T12:57:04;28.70;99.90
2973;DHT22;1496;51.404;7.232;2023-06-10T12:59:31;28.70;99.90
2973;DHT22;1496;51.404;7.232;2023-06-10T13:01:59;28.90;99.90
2973;DHT22;1496;51.404;7.232;2023-06-10T13:04:27;28.90;99.90
2973;DHT22;1496;51.404;7.232;2023-06-10T13:06:54;28.90;99.90
2973;DHT22;1496;51.404;7.232;2023-06-10T13:09:22;28.90;99.90
2973;DHT22;1496;51.404;7.232;2023-06-10T13:11:49;29.00;99.90
2973;DHT22;1496;51.404;7.232;2023-06-10T13:14:16;29.10;99.90
2973;DHT22;1496;51.404;7.232;2023-06-10T13:16:44;29.10;99.90
2973;DHT22;1496;51.404;7.232;2023-06-10T13:19:12;29.00;99.90
2973;DHT22;1496;51.404;7.232;2023-06-10T13:21:40;29.10;99.90
2973;DHT22;1496;51.404;7.232;2023-06-10T13:24:08;29.10;99.90
2973;DHT22;1496;51.404;7.232;2023-06-10T13:26:36;28.90;99.90
2973;DHT22;1496;51.404;7.232;2023-06-10T13:29:02;29.00;99.90
2973;DHT22;1496;51.404;7.232;2023-06-10T13:31:31;29.00;99.90
2973;DHT22;1496;51.404;7.232;2023-06-10T13:33:58;29.00;99.90
2973;DHT22;1496;51.404;7.232;2023-06-10T13:36:25;29.00;99.90
2973;DHT22;1496;51.404;7.232;2023-06-10T13:38:52;29.00;99.90
2973;DHT22;1496;51.404;7.232;2023-06-10T13:41:19;28.90;99.90
2973;DHT22;1496;51.404;7.232;2023-06-10T13:43:46;28.90;99.90
2973;DHT22;1496;51.404;7.232;2023-06-10T13:46:13;28.90;99.90
2973;DHT22;1496;51.404;7.232;2023-06-10T13:48:40;28.70;99.90
2973;DHT22;1496;51.404;7.232;2023-06-10T13:51:07;28.60;99.90
2973;DHT22;1496;51.404;7.232;2023-06-10T13:53:37;28.60;99.90
2973;DHT22;1496;51.404;7.232;2023-06-10T13:56:04;28.60;99.90
2973;DHT22;1496;51.404;7.232;2023-06-10T13:58:29;28.60;99.90
2973;DHT22;1496;51.404;7.232;2023-06-10T14:00:56;28.70;99.90
2973;DHT22;1496;51.404;7.232;2023-06-10T14:03:24;28.70;99.90
2973;DHT22;1496;51.404;7.232;2023-06-10T14:05:52;28.70;99.90
2973;DHT22;1496;51.404;7.232;2023-06-10T14:08:22;28.80;99.90
2973;DHT22;1496;51.404;7.232;2023-06-10T14:10:49;28.80;99.90
2973;DHT22;1496;51.404;7.232;2023-06-10T14:13:21;28.80;99.90
2973;DHT22;1496;51.404;7.232;2023-06-10T14:15:48;28.60;99.90
2973;DHT22;1496;51.404;7.232;2023-06-10T14:18:16;28.50;99.90
2973;DHT22;1496;51.404;7.232;2023-06-10T14:20:43;28.50;99.90
2973;DHT22;1496;51.404;7.232;2023-06-10T14:23:11;28.60;99.90
2973;DHT22;1496;51.404;7.232;2023-06-10T14:25:38;28.60;99.90
2973;DHT22;1496;51.404;7.232;2023-06-10T14:28:05;28.50;99.90
2973;DHT22;1496;51.404;7.232;2023-06-10T14:30:33;28.50;99.90
2973;DHT22;1496;51.404;7.232;2023-06-10T14:33:00;28.50;99.90
2973;DHT22;1496;51.404;7.232;2023-06-10T14:35:28;28.50;99.90
2973;DHT22;1496;51.404;7.232;2023-06-10T14:37:54;28.50;99.90
2973;DHT22;1496;51.404;7.232;2023-06-10T14:40:22;28.50;99.90
2973;DHT22;1496;51.404;7.232;2023-06-10T14:42:50;28.50;99.90
2973;DHT22;1496;51.404;7.232;2023-06-10T14:45:18;28.50;99.90
2973;DHT22;1496;51.404;7.232;2023-06-10T14:47:45;28.40;99.90
2973;DHT22;1496;51.404;7.232;2023-06-10T14:50:14;28.30;99.90
2973;DHT22;1496;51.404;7.232;2023-06-10T14:52:41;28.20;99.90
2973;DHT22;1496;51.404;7.232;2023-06-10T14:55:08;28.20;99.90
2973;DHT22;1496;51.404;7.232;2023-06-10T14:57:36;28.20;99.90
2973;DHT22;1496;51.404;7.232;2023-06-10T15:00:04;28.20;99.90
2973;DHT22;1496;51.404;7.232;2023-06-10T15:02:34;28.20;99.90
2973;DHT22;1496;51.404;7.232;2023-06-10T15:05:03;28.10;99.90
2973;DHT22;1496;51.404;7.232;2023-06-10T15:07:32;28.10;99.90
2973;DHT22;1496;51.404;7.232;2023-06-10T15:09:59;28.20;99.90
2973;DHT22;1496;51.404;7.232;2023-06-10T15:12:27;28.20;99.90
2973;DHT22;1496;51.404;7.232;2023-06-10T15:14:55;28.20;99.90
2973;DHT22;1496;51.404;7.232;2023-06-10T15:17:23;28.20;99.90
2973;DHT22;1496;51.404;7.232;2023-06-10T15:19:50;28.10;99.90
2973;DHT22;1496;51.404;7.232;2023-06-10T15:22:17;28.10;99.90
2973;DHT22;1496;51.404;7.232;2023-06-10T15:24:47;28.00;99.90
2973;DHT22;1496;51.404;7.232;2023-06-10T15:27:13;28.00;99.90
2973;DHT22;1496;51.404;7.232;2023-06-10T15:29:40;28.00;99.90
2973;DHT22;1496;51.404;7.232;2023-06-10T15:32:08;28.00;99.90
2973;DHT22;1496;51.404;7.232;2023-06-10T15:34:34;27.90;99.90
2973;DHT22;1496;51.404;7.232;2023-06-10T15:37:06;27.90;99.90
2973;DHT22;1496;51.404;7.232;2023-06-10T15:39:36;27.90;99.90
2973;DHT22;1496;51.404;7.232;2023-06-10T15:42:03;27.80;99.90
2973;DHT22;1496;51.404;7.232;2023-06-10T15:44:31;27.90;99.90
2973;DHT22;1496;51.404;7.232;2023-06-10T15:47:01;27.90;99.90
2973;DHT22;1496;51.404;7.232;2023-06-10T15:49:28;27.80;99.90
2973;DHT22;1496;51.404;7.232;2023-06-10T15:51:54;27.90;99.90
2973;DHT22;1496;51.404;7.232;2023-06-10T15:54:22;27.90;99.90
2973;DHT22;1496;51.404;7.232;2023-06-10T15:56:50;27.90;99.90
2973;DHT22;1496;51.404;7.232;2023-06-10T15:59:16;27.80;99.90
2973;DHT22;1496;51.404;7.232;2023-06-10T16:01:43;27.70;99.90
2973;DHT22;1496;51.404;7.232;2023-06-10T16:04:10;27.70;99.90
2973;DHT22;1496;51.404;7.232;2023-06-10T16:06:38;27.60;99.90
2973;DHT22;1496;51.404;7.232;2023-06-10T16:09:04;27.50;99.90
2973;DHT22;1496;51.404;7.232;2023-06-10T16:11:32;27.50;99.90
2973;DHT22;1496;51.404;7.232;2023-06-10T16:13:58;27.50;99.90
2973;DHT22;1496;51.404;7.232;2023-06-10T16:16:25;27.50;99.90
2973;DHT22;1496;51.404;7.232;2023-06-10T16:18:53;27.40;99.90
2973;DHT22;1496;51.404;7.232;2023-06-10T16:21:19;27.40;99.90
2973;DHT22;1496;51.404;7.232;2023-06-10T16:23:48;27.40;99.90
2973;DHT22;1496;51.404;7.232;2023-06-10T16:26:16;27.40;99.90
2973;DHT22;1496;51.404;7.232;2023-06-10T16:28:43;27.40;99.90
2973;DHT22;1496;51.404;7.232;2023-06-10T16:31:11;27.30;99.90